Terminal Aerodrome Forecast
Issued by NWS

Home | Current Version | Previous Version | Text Only | Print | Product List | Glossary On
Versions: 1 2 3 4 5 6 7 8 9 10 11 12 13 14 15
000
FTUS44 KCRP 020542
TAFLRD
TAF
KLRD 020542Z 0206/0306 04015G22KT P6SM VCSH BKN035
     FM020800 02012KT P6SM VCTS OVC025CB
      TEMPO 0208/0212 5SM -TSRA OVC015CB
     FM021600 36012KT P6SM VCSH SCT009 OVC029
     FM021800 36015KT P6SM BKN035=

USA.gov is the U.S. government's official web portal to all federal, state and local government web resources and services.